createdAt,value
2022-12-15T00:02:20.089Z,78.68
2022-12-15T00:04:41.016Z,68.47
2022-12-15T00:07:01.523Z,67.82
2022-12-15T00:09:25.167Z,63.90
2022-12-15T00:11:48.614Z,58.42
2022-12-15T00:14:09.542Z,50.97
2022-12-15T00:16:29.808Z,69.18
2022-12-15T00:18:50.651Z,66.82
2022-12-15T00:21:16.273Z,60.70
2022-12-15T00:23:36.519Z,57.90
2022-12-15T00:25:56.823Z,67.47
2022-12-15T00:28:17.131Z,51.60
2022-12-15T00:30:37.881Z,82.60
2022-12-15T00:32:58.215Z,68.88
2022-12-15T00:35:18.432Z,60.35
2022-12-15T00:37:38.698Z,58.47
2022-12-15T00:39:40.663Z,64.83
2022-12-15T00:41:42.657Z,57.30
2022-12-15T00:43:45.225Z,63.57
2022-12-15T00:46:05.976Z,63.95
2022-12-15T00:48:07.967Z,68.40
2022-12-15T00:50:28.415Z,66.90
2022-12-15T00:52:49.153Z,88.47
2022-12-15T00:55:09.315Z,69.17
2022-12-15T00:57:30.119Z,63.90
2022-12-15T00:59:50.397Z,66.15
2022-12-15T01:02:11.336Z,56.65
2022-12-15T01:04:32.192Z,67.75
2022-12-15T01:06:53.131Z,62.13
2022-12-15T01:09:14.012Z,66.53
2022-12-15T01:11:34.158Z,64.53
2022-12-15T01:13:55.002Z,62.30
2022-12-15T01:16:15.383Z,69.50
2022-12-15T01:18:35.852Z,78.93
2022-12-15T01:20:37.873Z,77.93
2022-12-15T01:22:40.367Z,66.22
2022-12-15T01:24:42.584Z,71.70
2022-12-15T01:26:44.566Z,64.78
2022-12-15T01:28:46.544Z,68.13
2022-12-15T01:30:48.618Z,64.90
2022-12-15T01:32:51.059Z,64.97
2022-12-15T01:34:53.752Z,62.05
2022-12-15T01:36:55.756Z,62.83
2022-12-15T01:38:57.761Z,74.40
2022-12-15T01:41:03.428Z,63.87
2022-12-15T01:43:12.101Z,66.53
2022-12-15T01:45:29.104Z,57.13
2022-12-15T01:47:31.201Z,73.30
2022-12-15T01:49:33.279Z,59.50
2022-12-15T01:51:40.654Z,71.90
2022-12-15T01:53:50.575Z,54.67
2022-12-15T01:55:53.821Z,63.47
2022-12-15T01:58:02.334Z,64.15
2022-12-15T02:00:06.795Z,59.10
2022-12-15T02:02:10.452Z,60.87
2022-12-15T02:04:12.687Z,69.80
2022-12-15T02:06:15.948Z,67.03
2022-12-15T02:08:17.933Z,57.72
2022-12-15T02:10:20.075Z,70.05
2022-12-15T02:12:37.743Z,59.53
2022-12-15T02:14:58.108Z,66.50
2022-12-15T02:17:18.722Z,78.68
2022-12-15T02:20:25.397Z,49.37
2022-12-15T02:22:49.148Z,58.30
2022-12-15T02:25:16.658Z,57.80
2022-12-15T02:27:34.528Z,50.10
2022-12-15T02:30:04.782Z,50.83
2022-12-15T02:32:13.512Z,53.63
2022-12-15T02:34:44.652Z,63.58
2022-12-15T02:36:54.823Z,70.13
2022-12-15T02:38:56.923Z,62.13
2022-12-15T02:41:03.576Z,53.33
2022-12-15T02:43:06.829Z,53.35
2022-12-15T02:45:13.587Z,60.43
2022-12-15T02:47:36.217Z,61.25
2022-12-15T02:49:49.845Z,50.75
2022-12-15T02:52:42.713Z,51.58
2022-12-15T02:55:04.806Z,60.15
2022-12-15T02:57:20.259Z,54.87
2022-12-15T02:59:55.539Z,44.00
2022-12-15T03:02:01.290Z,52.97
2022-12-15T03:04:05.733Z,45.72
2022-12-15T03:06:09.008Z,43.85
2022-12-15T03:08:11.001Z,47.55
2022-12-15T03:10:14.360Z,56.70
2022-12-15T03:12:16.430Z,48.78
2022-12-15T03:14:18.658Z,42.05
2022-12-15T03:16:21.043Z,38.80
2022-12-15T03:18:23.064Z,52.80
2022-12-15T03:20:25.448Z,40.55
2022-12-15T03:22:27.561Z,54.33
2022-12-15T03:24:29.700Z,46.30
2022-12-15T03:26:31.815Z,45.87
2022-12-15T03:28:34.232Z,47.17
2022-12-15T03:30:36.232Z,38.25
2022-12-15T03:32:38.212Z,42.07
2022-12-15T03:34:40.403Z,36.30
2022-12-15T03:36:42.541Z,41.80
2022-12-15T03:38:44.533Z,41.17
2022-12-15T03:40:46.560Z,46.47
2022-12-15T03:42:48.618Z,35.55
2022-12-15T03:44:50.667Z,39.60
2022-12-15T03:46:52.652Z,38.58
2022-12-15T03:48:54.872Z,36.03
2022-12-15T03:50:56.904Z,36.92
2022-12-15T03:53:01.109Z,38.65
2022-12-15T03:55:04.492Z,38.75
2022-12-15T03:57:06.880Z,31.20
2022-12-15T03:59:08.870Z,32.97
2022-12-15T04:01:12.949Z,37.75
2022-12-15T04:03:15.024Z,38.88
2022-12-15T04:05:25.806Z,30.52
2022-12-15T04:07:27.796Z,37.10
2022-12-15T04:09:29.779Z,35.27
2022-12-15T04:11:31.746Z,33.17
2022-12-15T04:13:34.227Z,38.38
2022-12-15T04:15:38.198Z,31.13
2022-12-15T04:17:41.837Z,33.90
2022-12-15T04:20:02.343Z,32.03
2022-12-15T04:22:04.386Z,36.70
2022-12-15T04:24:25.278Z,34.90
2022-12-15T04:26:45.947Z,28.52
2022-12-15T04:29:06.395Z,32.83
2022-12-15T04:31:41.911Z,43.45
2022-12-15T04:34:06.443Z,32.85
2022-12-15T04:36:28.218Z,32.92
2022-12-15T04:38:50.481Z,32.55
2022-12-15T04:41:11.472Z,34.15
2022-12-15T04:43:32.717Z,38.65
2022-12-15T04:45:53.365Z,33.08
2022-12-15T04:48:14.205Z,38.08
2022-12-15T04:50:35.004Z,32.33
2022-12-15T04:52:55.824Z,26.65
2022-12-15T04:55:16.496Z,41.50
2022-12-15T04:57:36.762Z,36.50
2022-12-15T04:59:57.464Z,31.38
2022-12-15T05:02:18.207Z,35.20
2022-12-15T05:04:39.184Z,43.70
2022-12-15T05:06:59.716Z,41.70
2022-12-15T05:09:20.563Z,31.95
2022-12-15T05:11:41.284Z,36.85
2022-12-15T05:14:02.284Z,34.33
2022-12-15T05:16:24.824Z,38.45
2022-12-15T05:18:45.562Z,36.88
2022-12-15T05:21:06.092Z,32.63
2022-12-15T05:23:27.041Z,39.42
2022-12-15T05:25:47.697Z,42.55
2022-12-15T05:28:08.292Z,34.40
2022-12-15T05:30:29.592Z,34.97
2022-12-15T05:32:33.101Z,36.92
2022-12-15T05:34:36.101Z,29.90
2022-12-15T05:36:38.232Z,29.02
2022-12-15T05:38:40.209Z,40.28
2022-12-15T05:40:42.569Z,42.63
2022-12-15T05:42:44.530Z,33.65
2022-12-15T05:44:52.130Z,32.10
2022-12-15T05:46:54.381Z,32.58
2022-12-15T05:48:56.419Z,41.25
2022-12-15T05:51:03.615Z,37.03
2022-12-15T05:53:05.599Z,33.88
2022-12-15T05:55:08.601Z,33.45
2022-12-15T05:57:10.741Z,36.55
2022-12-15T05:59:13.211Z,29.80
2022-12-15T06:01:18.017Z,51.22
2022-12-15T06:03:20.260Z,38.67
2022-12-15T06:05:22.226Z,26.85
2022-12-15T06:07:24.353Z,40.00
2022-12-15T06:09:26.384Z,33.80
2022-12-15T06:11:28.444Z,30.63
2022-12-15T06:13:32.364Z,36.15
2022-12-15T06:15:34.576Z,33.92
2022-12-15T06:17:36.541Z,32.92
2022-12-15T06:19:38.519Z,37.40
2022-12-15T06:21:40.607Z,34.45
2022-12-15T06:23:42.819Z,36.72
2022-12-15T06:25:44.867Z,36.13
2022-12-15T06:27:46.895Z,30.33
2022-12-15T06:29:49.596Z,31.58
2022-12-15T06:31:51.778Z,32.25
2022-12-15T06:34:01.351Z,39.53
2022-12-15T06:36:06.225Z,32.92
2022-12-15T06:38:08.410Z,31.27
2022-12-15T06:40:10.841Z,30.60
2022-12-15T06:42:14.660Z,33.45
2022-12-15T06:44:16.773Z,37.40
2022-12-15T06:46:19.641Z,42.95
2022-12-15T06:48:23.135Z,40.08
2022-12-15T06:50:25.107Z,33.13
2022-12-15T06:52:27.094Z,30.88
2022-12-15T06:54:29.139Z,33.55
2022-12-15T06:56:34.624Z,32.22
2022-12-15T06:58:36.936Z,36.47
2022-12-15T07:00:40.082Z,40.70
2022-12-15T07:02:42.936Z,32.75
2022-12-15T07:04:45.103Z,25.67
2022-12-15T07:06:47.163Z,34.08
2022-12-15T07:08:56.379Z,36.00
2022-12-15T07:10:58.579Z,32.20
2022-12-15T07:13:00.565Z,32.72
2022-12-15T07:15:03.052Z,30.58
2022-12-15T07:17:05.460Z,34.85
2022-12-15T07:19:11.671Z,39.72
2022-12-15T07:21:13.843Z,36.13
2022-12-15T07:23:15.923Z,30.25
2022-12-15T07:25:19.089Z,29.42
2022-12-15T07:27:21.125Z,33.40
2022-12-15T07:29:23.785Z,40.88
2022-12-15T07:31:25.907Z,30.80
2022-12-15T07:33:28.117Z,31.90
2022-12-15T07:35:30.928Z,34.90
2022-12-15T07:37:32.949Z,34.00
2022-12-15T07:39:34.951Z,36.42
2022-12-15T07:41:38.292Z,39.85
2022-12-15T07:43:40.422Z,35.78
2022-12-15T07:45:46.767Z,33.53
2022-12-15T07:47:52.187Z,40.72
2022-12-15T07:49:54.844Z,36.50
2022-12-15T07:51:58.470Z,33.15
2022-12-15T07:54:00.535Z,37.05
2022-12-15T07:56:08.967Z,37.92
2022-12-15T07:58:11.767Z,35.45
2022-12-15T08:00:15.065Z,41.67
2022-12-15T08:02:17.709Z,37.05
2022-12-15T08:04:20.029Z,39.90
2022-12-15T08:06:22.088Z,45.08
2022-12-15T08:08:24.098Z,32.70
2022-12-15T08:10:26.118Z,36.85
2022-12-15T08:12:29.125Z,35.35
2022-12-15T08:14:32.257Z,41.75
2022-12-15T08:16:36.480Z,35.80
2022-12-15T08:18:39.587Z,36.90
2022-12-15T08:20:41.916Z,34.10
2022-12-15T08:22:43.918Z,38.38
2022-12-15T08:24:45.949Z,39.08
2022-12-15T08:26:50.092Z,34.78
2022-12-15T08:28:53.047Z,36.88
2022-12-15T08:30:55.003Z,34.78
2022-12-15T08:32:56.999Z,34.78
2022-12-15T08:34:59.081Z,36.67
2022-12-15T08:37:01.018Z,37.95
2022-12-15T08:39:03.719Z,33.20
2022-12-15T08:41:09.570Z,35.53
2022-12-15T08:43:11.537Z,40.40
2022-12-15T08:45:13.574Z,38.47
2022-12-15T08:47:15.690Z,31.80
2022-12-15T08:49:21.702Z,34.77
2022-12-15T08:51:26.860Z,31.20
2022-12-15T08:53:31.588Z,34.83
2022-12-15T08:55:43.506Z,29.37
2022-12-15T08:57:45.957Z,26.27
2022-12-15T08:59:47.948Z,33.33
2022-12-15T09:01:50.032Z,37.20
2022-12-15T09:03:53.959Z,31.70
2022-12-15T09:05:57.620Z,36.20
2022-12-15T09:08:06.151Z,35.67
2022-12-15T09:10:08.983Z,34.00
2022-12-15T09:12:12.066Z,33.17
2022-12-15T09:14:14.819Z,31.55
2022-12-15T09:16:17.810Z,41.30
2022-12-15T09:18:19.967Z,32.93
2022-12-15T09:20:21.975Z,36.50
2022-12-15T09:22:24.093Z,31.93
2022-12-15T09:24:34.391Z,30.97
2022-12-15T09:26:36.936Z,31.42
2022-12-15T09:28:39.424Z,34.47
2022-12-15T09:30:41.534Z,27.43
2022-12-15T09:32:43.669Z,33.53
2022-12-15T09:34:45.869Z,35.77
2022-12-15T09:36:47.928Z,44.73
2022-12-15T09:38:50.083Z,36.17
2022-12-15T09:40:52.276Z,38.03
2022-12-15T09:43:25.617Z,38.13
2022-12-15T09:45:21.595Z,36.17
2022-12-15T09:47:41.926Z,35.37
2022-12-15T09:49:58.961Z,32.77
2022-12-15T09:52:10.691Z,29.10
2022-12-15T09:54:13.371Z,37.90
2022-12-15T09:56:21.317Z,38.10
2022-12-15T09:58:26.104Z,43.23
2022-12-15T10:00:55.872Z,35.33
2022-12-15T10:03:24.088Z,37.83
2022-12-15T10:06:07.289Z,39.43
2022-12-15T10:08:00.362Z,40.57
2022-12-15T10:10:37.936Z,43.57
2022-12-15T10:12:53.136Z,39.27
2022-12-15T10:15:12.304Z,36.53
2022-12-15T10:17:41.737Z,33.90
2022-12-15T10:19:56.722Z,31.73
2022-12-15T10:21:59.087Z,26.70
2022-12-15T10:24:37.382Z,23.97
2022-12-15T10:26:42.195Z,22.43
2022-12-15T10:29:12.892Z,54.07
2022-12-15T10:31:27.155Z,42.23
2022-12-15T10:33:36.435Z,38.03
2022-12-15T10:35:40.468Z,27.63
2022-12-15T10:37:42.892Z,23.83
2022-12-15T10:39:50.233Z,23.33
2022-12-15T10:42:18.313Z,23.20
2022-12-15T10:44:32.041Z,24.00
2022-12-15T10:46:34.364Z,24.93
2022-12-15T10:48:37.047Z,26.73
2022-12-15T10:50:38.987Z,23.37
2022-12-15T10:52:41.067Z,25.03
2022-12-15T10:54:48.717Z,23.03
2022-12-15T10:56:58.985Z,22.90
2022-12-15T10:59:22.809Z,20.80
2022-12-15T11:01:27.588Z,24.27
2022-12-15T11:03:31.069Z,20.00
2022-12-15T11:05:33.559Z,23.67
2022-12-15T11:07:40.953Z,19.27
2022-12-15T11:09:43.105Z,27.90
2022-12-15T11:12:06.055Z,22.00
2022-12-15T11:14:20.454Z,22.30
2022-12-15T11:16:22.430Z,20.07
2022-12-15T11:18:41.985Z,24.50
2022-12-15T11:20:48.801Z,19.73
2022-12-15T11:22:53.613Z,21.83
2022-12-15T11:25:06.530Z,28.43
2022-12-15T11:27:18.251Z,21.63
2022-12-15T11:29:23.537Z,18.63
2022-12-15T11:31:35.437Z,23.80
2022-12-15T11:33:37.482Z,21.70
2022-12-15T11:36:07.791Z,20.73
2022-12-15T11:38:32.497Z,20.73
2022-12-15T11:40:38.706Z,22.30
2022-12-15T11:43:05.843Z,24.13
2022-12-15T11:45:27.226Z,23.27
2022-12-15T11:47:36.072Z,23.03
2022-12-15T11:49:49.134Z,22.43
2022-12-15T11:52:05.996Z,21.00
2022-12-15T11:54:30.474Z,19.80
2022-12-15T11:56:35.632Z,19.20
2022-12-15T11:58:37.570Z,21.90
2022-12-15T12:00:43.050Z,22.07
2022-12-15T12:03:00.232Z,24.97
2022-12-15T12:05:25.521Z,21.53
2022-12-15T12:07:42.012Z,27.43
2022-12-15T12:09:44.343Z,19.93
2022-12-15T12:12:02.037Z,20.27
2022-12-15T12:14:12.178Z,28.53
2022-12-15T12:16:41.799Z,22.87
2022-12-15T12:18:55.681Z,22.50
2022-12-15T12:21:07.937Z,24.43
2022-12-15T12:23:13.079Z,24.03
2022-12-15T12:25:18.536Z,26.27
2022-12-15T12:27:39.561Z,25.53
2022-12-15T12:29:51.230Z,26.80
2022-12-15T12:32:15.885Z,26.97
2022-12-15T12:34:25.575Z,23.57
2022-12-15T12:36:27.747Z,24.97
2022-12-15T12:38:34.698Z,23.13
2022-12-15T12:40:40.457Z,28.20
2022-12-15T12:42:57.975Z,26.73
2022-12-15T12:45:02.040Z,26.80
2022-12-15T12:47:28.900Z,35.93
2022-12-15T12:49:36.330Z,24.67
2022-12-15T12:51:40.581Z,28.10
2022-12-15T12:53:42.566Z,35.70
2022-12-15T12:55:44.648Z,32.57
2022-12-15T12:57:47.564Z,24.47
2022-12-15T12:59:59.297Z,26.93
2022-12-15T13:02:20.154Z,25.93
2022-12-15T13:04:33.825Z,24.53
2022-12-15T13:06:35.770Z,26.47
2022-12-15T13:08:52.220Z,26.03
2022-12-15T13:10:55.601Z,24.30
2022-12-15T13:12:59.378Z,26.50
2022-12-15T13:15:06.649Z,27.80
2022-12-15T13:17:26.661Z,25.57
2022-12-15T13:19:58.179Z,26.87
2022-12-15T13:22:01.349Z,21.73
2022-12-15T13:24:04.168Z,24.10
2022-12-15T13:26:06.109Z,25.77
2022-12-15T13:28:29.688Z,31.80
2022-12-15T13:30:31.708Z,19.90
2022-12-15T13:32:52.484Z,30.60
2022-12-15T13:34:54.532Z,26.90
2022-12-15T13:36:57.837Z,30.90
2022-12-15T13:38:59.916Z,24.37
2022-12-15T13:41:02.058Z,30.57
2022-12-15T13:43:03.992Z,25.87
2022-12-15T13:45:16.046Z,29.53
2022-12-15T13:47:27.567Z,32.33
2022-12-15T13:49:33.357Z,26.87
2022-12-15T13:51:38.429Z,28.80
2022-12-15T13:53:44.304Z,25.80
2022-12-15T13:56:03.887Z,27.87
2022-12-15T13:58:16.107Z,26.53
2022-12-15T14:00:19.092Z,33.80
2022-12-15T14:02:36.286Z,28.07
2022-12-15T14:04:38.309Z,29.80
2022-12-15T14:06:47.092Z,32.50
2022-12-15T14:08:53.087Z,25.93
2022-12-15T14:11:00.051Z,29.03
2022-12-15T14:15:33.427Z,24.83
2022-12-15T14:17:36.327Z,31.00
2022-12-15T14:19:43.932Z,30.33
2022-12-15T14:21:57.203Z,25.43
2022-12-15T14:26:27.865Z,27.67
2022-12-15T14:28:32.373Z,30.00
2022-12-15T14:30:35.556Z,34.87
2022-12-15T14:32:38.285Z,31.33
2022-12-15T14:34:41.867Z,35.30
2022-12-15T14:36:44.369Z,33.80
2022-12-15T14:38:56.443Z,34.13
2022-12-15T14:41:01.346Z,30.40
2022-12-15T14:43:04.960Z,34.40
2022-12-15T14:45:18.324Z,29.63
2022-12-15T14:47:23.840Z,35.27
2022-12-15T14:49:29.991Z,28.93
2022-12-15T14:51:40.500Z,31.10
2022-12-15T14:53:43.626Z,28.37
2022-12-15T14:55:46.384Z,31.57
2022-12-15T14:57:48.520Z,34.43
2022-12-15T14:59:53.022Z,29.50
2022-12-15T15:02:06.499Z,31.30
2022-12-15T15:03:05.834Z,27.90
2022-12-15T15:04:29.231Z,28.83
2022-12-15T15:06:36.528Z,32.50
2022-12-15T15:08:50.134Z,33.77
2022-12-15T15:10:53.444Z,31.53
2022-12-15T15:12:55.729Z,36.57
2022-12-15T15:15:06.491Z,34.17
2022-12-15T15:17:19.035Z,33.73
2022-12-15T15:19:22.699Z,26.63
2022-12-15T15:21:27.324Z,29.57
2022-12-15T15:23:30.068Z,32.30
2022-12-15T15:25:41.203Z,28.63
2022-12-15T15:27:43.463Z,33.07
2022-12-15T15:29:45.432Z,31.37
2022-12-15T15:31:47.562Z,41.10
2022-12-15T15:33:49.580Z,31.83
2022-12-15T15:35:53.939Z,32.83
2022-12-15T15:38:02.636Z,32.20
2022-12-15T15:40:10.822Z,37.97
2022-12-15T15:42:13.475Z,53.43
2022-12-15T15:44:15.952Z,41.10
2022-12-15T15:46:25.562Z,38.57
2022-12-15T15:48:31.513Z,37.00
2022-12-15T15:50:33.966Z,36.20
2022-12-15T15:52:35.975Z,30.37
2022-12-15T15:54:38.705Z,35.77
2022-12-15T15:56:41.593Z,34.87
2022-12-15T15:58:44.029Z,31.27
2022-12-15T16:00:46.074Z,33.90
2022-12-15T16:02:48.388Z,40.73
2022-12-15T16:04:50.930Z,43.73
2022-12-15T16:06:53.493Z,44.83
2022-12-15T16:08:55.626Z,42.00
2022-12-15T16:10:57.855Z,37.50
2022-12-15T16:13:01.200Z,42.53
2022-12-15T16:15:12.549Z,39.57
2022-12-15T16:17:15.794Z,39.40
2022-12-15T16:19:17.805Z,40.87
2022-12-15T16:21:20.099Z,44.43
2022-12-15T16:23:27.801Z,45.77
2022-12-15T16:25:42.715Z,48.80
2022-12-15T16:27:46.389Z,56.77
2022-12-15T16:29:48.553Z,71.03
2022-12-15T16:31:50.697Z,53.43
2022-12-15T16:33:52.780Z,72.47
2022-12-15T16:35:54.783Z,48.37
2022-12-15T16:37:56.884Z,52.37
2022-12-15T16:39:58.888Z,51.40
2022-12-15T16:42:01.138Z,46.77
2022-12-15T16:44:03.325Z,44.03
2022-12-15T16:46:05.779Z,47.37
2022-12-15T16:48:08.813Z,56.33
2022-12-15T16:50:20.172Z,44.40
2022-12-15T16:52:22.257Z,43.40
2022-12-15T16:54:26.528Z,40.97
2022-12-15T16:56:28.585Z,42.87
2022-12-15T16:58:31.822Z,46.67
2022-12-15T17:00:35.274Z,43.57
2022-12-15T17:02:38.627Z,40.10
2022-12-15T17:04:40.836Z,42.77
2022-12-15T17:06:43.191Z,35.73
2022-12-15T17:08:50.901Z,37.13
2022-12-15T17:10:53.302Z,43.10
2022-12-15T17:12:59.858Z,41.63
2022-12-15T17:15:02.791Z,44.40
2022-12-15T17:17:16.241Z,41.90
2022-12-15T17:19:21.258Z,41.70
2022-12-15T17:21:29.437Z,39.10
2022-12-15T17:23:32.941Z,48.10
2022-12-15T17:28:04.249Z,40.50
2022-12-15T17:30:06.939Z,46.83
2022-12-15T17:32:12.610Z,61.93
2022-12-15T17:34:30.329Z,46.73
2022-12-15T17:36:32.465Z,34.53
2022-12-15T17:38:34.461Z,39.63
2022-12-15T17:40:36.416Z,45.20
2022-12-15T17:42:38.457Z,56.10
2022-12-15T17:44:40.567Z,46.87
2022-12-15T17:46:42.707Z,41.17
2022-12-15T17:48:45.193Z,50.80
2022-12-15T17:50:49.927Z,52.40
2022-12-15T17:52:51.971Z,47.53
2022-12-15T17:54:54.463Z,39.03
2022-12-15T17:56:56.510Z,45.47
2022-12-15T17:58:58.553Z,47.53
2022-12-15T18:01:00.526Z,42.00
2022-12-15T18:03:02.700Z,42.97
2022-12-15T18:05:05.207Z,49.47
2022-12-15T18:07:14.418Z,48.87
2022-12-15T18:09:18.645Z,40.67
2022-12-15T18:11:20.643Z,48.13
2022-12-15T18:13:24.236Z,47.33
2022-12-15T18:15:28.785Z,45.33
2022-12-15T18:17:31.389Z,48.67
2022-12-15T18:19:35.199Z,42.77
2022-12-15T18:21:37.507Z,44.37
2022-12-15T18:23:39.750Z,43.73
2022-12-15T18:25:42.802Z,39.70
2022-12-15T18:27:44.799Z,42.37
2022-12-15T18:29:46.776Z,45.20
2022-12-15T18:31:48.889Z,47.10
2022-12-15T18:33:51.080Z,47.83
2022-12-15T18:35:53.780Z,43.87
2022-12-15T18:37:56.559Z,39.73
2022-12-15T18:40:04.672Z,43.60
2022-12-15T18:42:17.120Z,38.70
2022-12-15T18:44:24.935Z,41.50
2022-12-15T18:46:28.213Z,53.75
2022-12-15T18:48:32.430Z,43.50
2022-12-15T18:50:34.430Z,39.60
2022-12-15T18:52:36.555Z,44.07
2022-12-15T18:54:38.721Z,43.03
2022-12-15T18:56:40.691Z,43.75
2022-12-15T18:58:42.791Z,48.97
2022-12-15T19:00:45.129Z,40.77
2022-12-15T19:02:48.537Z,48.60
2022-12-15T19:04:50.664Z,50.27
2022-12-15T19:06:52.668Z,51.88
2022-12-15T19:08:54.808Z,46.85
2022-12-15T19:11:02.368Z,50.45
2022-12-15T19:13:06.119Z,49.10
2022-12-15T19:15:14.346Z,51.90
2022-12-15T19:17:37.951Z,49.47
2022-12-15T19:19:58.444Z,46.60
2022-12-15T19:22:19.172Z,54.58
2022-12-15T19:24:45.603Z,42.30
2022-12-15T19:26:47.620Z,42.43
2022-12-15T19:28:49.619Z,47.45
2022-12-15T19:30:52.199Z,50.93
2022-12-15T19:32:54.301Z,55.13
2022-12-15T19:34:56.748Z,58.53
2022-12-15T19:36:59.277Z,56.87
2022-12-15T19:39:01.375Z,52.30
2022-12-15T19:41:03.819Z,56.78
2022-12-15T19:43:05.893Z,55.00
2022-12-15T19:45:22.725Z,48.67
2022-12-15T19:47:24.752Z,45.57
2022-12-15T19:49:26.713Z,48.50
2022-12-15T19:51:28.891Z,55.83
2022-12-15T19:53:31.488Z,45.53
2022-12-15T19:55:35.203Z,50.40
2022-12-15T19:57:37.252Z,50.30
2022-12-15T19:59:39.439Z,46.53
2022-12-15T20:01:41.533Z,43.47
2022-12-15T20:03:46.159Z,46.70
2022-12-15T20:05:50.899Z,54.80
2022-12-15T20:07:53.432Z,52.15
2022-12-15T20:09:56.131Z,50.20
2022-12-15T20:11:58.159Z,49.47
2022-12-15T20:14:01.982Z,48.67
2022-12-15T20:16:04.194Z,40.83
2022-12-15T20:18:06.344Z,49.63
2022-12-15T20:20:09.741Z,45.88
2022-12-15T20:22:16.924Z,47.55
2022-12-15T20:24:19.692Z,45.22
2022-12-15T20:26:22.789Z,40.27
2022-12-15T20:28:27.185Z,43.20
2022-12-15T20:30:35.418Z,37.45
2022-12-15T20:32:38.620Z,39.50
2022-12-15T20:34:40.778Z,46.72
2022-12-15T20:36:42.787Z,46.47
2022-12-15T20:38:45.501Z,49.08
2022-12-15T20:40:47.632Z,48.20
2022-12-15T20:42:50.291Z,42.28
2022-12-15T20:44:54.198Z,44.80
2022-12-15T20:46:56.499Z,49.85
2022-12-15T20:48:58.599Z,45.38
2022-12-15T20:51:04.323Z,50.73
2022-12-15T20:53:21.805Z,46.03
2022-12-15T20:55:23.988Z,49.37
2022-12-15T20:57:25.998Z,41.65
2022-12-15T20:59:28.116Z,49.72
2022-12-15T21:01:33.725Z,44.03
2022-12-15T21:03:40.906Z,51.92
2022-12-15T21:05:43.018Z,52.50
2022-12-15T21:07:45.570Z,47.03
2022-12-15T21:09:47.674Z,43.60
2022-12-15T21:11:51.780Z,49.92
2022-12-15T21:13:56.655Z,47.97
2022-12-15T21:15:58.759Z,48.28
2022-12-15T21:18:40.188Z,50.63
2022-12-15T21:20:22.791Z,45.20
2022-12-15T21:22:26.934Z,43.28
2022-12-15T21:24:29.195Z,48.28
2022-12-15T21:26:31.241Z,49.80
2022-12-15T21:28:33.480Z,57.20
2022-12-15T21:30:35.860Z,65.00
2022-12-15T21:32:37.993Z,66.72
2022-12-15T21:34:40.038Z,57.38
2022-12-15T21:36:44.029Z,56.05
2022-12-15T21:38:51.827Z,66.23
2022-12-15T21:40:59.589Z,55.30
2022-12-15T21:43:04.186Z,65.35
2022-12-15T21:45:20.167Z,57.95
2022-12-15T21:47:24.141Z,62.15
2022-12-15T21:49:26.354Z,65.23
2022-12-15T21:51:38.049Z,54.17
2022-12-15T21:53:40.105Z,54.75
2022-12-15T21:55:42.300Z,46.40
2022-12-15T21:57:44.876Z,61.15
2022-12-15T21:59:46.945Z,53.40
2022-12-15T22:01:49.616Z,59.75
2022-12-15T22:03:56.757Z,52.95
2022-12-15T22:05:58.807Z,44.83
2022-12-15T22:08:18.559Z,42.05
2022-12-15T22:10:20.641Z,47.35
2022-12-15T22:12:24.199Z,54.97
2022-12-15T22:14:29.389Z,43.85
2022-12-15T22:16:31.524Z,43.47
2022-12-15T22:18:33.862Z,47.42
2022-12-15T22:20:36.380Z,42.83
2022-12-15T22:22:38.372Z,46.15
2022-12-15T22:24:40.893Z,47.70
2022-12-15T22:26:43.269Z,44.22
2022-12-15T22:28:45.239Z,51.38
2022-12-15T22:30:48.569Z,45.25
2022-12-15T22:32:50.671Z,40.92
2022-12-15T22:34:52.788Z,46.40
2022-12-15T22:36:55.137Z,42.03
2022-12-15T22:38:57.154Z,42.13
2022-12-15T22:40:59.488Z,51.05
2022-12-15T22:43:01.979Z,42.22
2022-12-15T22:45:06.075Z,45.05
2022-12-15T22:47:09.913Z,45.38
2022-12-15T22:49:20.852Z,43.30
2022-12-15T22:51:23.124Z,47.80
2022-12-15T22:53:27.204Z,54.17
2022-12-15T22:55:29.160Z,47.95
2022-12-15T22:57:31.314Z,49.42
2022-12-15T22:59:42.689Z,49.78
2022-12-15T23:01:45.523Z,44.80
2022-12-15T23:03:47.547Z,42.15
2022-12-15T23:05:49.607Z,41.08
2022-12-15T23:07:51.715Z,51.28
2022-12-15T23:10:13.968Z,47.90
2022-12-15T23:12:16.119Z,44.00
2022-12-15T23:14:19.031Z,44.13
2022-12-15T23:16:21.531Z,45.20
2022-12-15T23:18:24.026Z,45.28
2022-12-15T23:20:26.079Z,38.80
2022-12-15T23:22:28.074Z,38.72
2022-12-15T23:24:31.318Z,39.38
2022-12-15T23:26:33.483Z,48.97
2022-12-15T23:28:35.960Z,42.97
2022-12-15T23:30:38.044Z,43.80
2022-12-15T23:32:40.075Z,33.95
2022-12-15T23:34:42.190Z,40.50
2022-12-15T23:36:44.433Z,44.38
2022-12-15T23:38:46.550Z,35.30
2022-12-15T23:40:52.858Z,45.22
2022-12-15T23:42:55.248Z,39.40
2022-12-15T23:44:57.544Z,39.85
2022-12-15T23:46:59.762Z,40.22
2022-12-15T23:49:01.777Z,39.15
2022-12-15T23:51:09.445Z,31.85
2022-12-15T23:53:11.527Z,40.40
2022-12-15T23:55:13.952Z,38.60
2022-12-15T23:57:17.267Z,31.70
2022-12-15T23:59:19.220Z,46.17
